ENCN/KRS METAR and TAF weather

Enter ICAO airport designator
Station Type Date Time Source
ENCN METAR 2021/09/24 03:20 UTC NOAA

ENCN 240320Z AUTO 29008KT 240V320 9999 OVC110/// 11/04 Q1004


Station Type Date Time Source
ENCN Decoded METAR 2021/09/24 03:20 UTC NOAA

Kristiansand / Kjevik, Norway (ENCN) 58-12N 008-05E 17M
Sep 23, 2021 - 11:20 PM EDT / 2021.09.24 0320 UTC
Wind: from the WNW (290 degrees) at 9 MPH (8 KT) (direction variable):0
Visibility: greater than 7 mile(s):0
Sky conditions: overcast
Temperature: 51 F (11 C)
Dew Point: 39 F (4 C)
Relative Humidity: 61%
Pressure (altimeter): 29.65 in. Hg (1004 hPa)
ob: ENCN 240320Z AUTO 29008KT 240V320 9999 OVC110/// 11/04 Q1004
cycle: 3

Station Type Date Time Source
ENCN TAF 2016/05/06 12:39 UTC NOAA

TAF TAF ENCN 061100Z 0612/0712 14008KT 9999 FEW040

Example: see airport list